sensor_id;sensor_type;location;lat;lon;timestamp;temperature;humidity
53748;DHT22;39655;53.210;5.768;2023-03-04T00:00:37;6.20;80.20
53748;DHT22;39655;53.210;5.768;2023-03-04T00:03:08;6.20;79.30
53748;DHT22;39655;53.210;5.768;2023-03-04T00:05:36;6.20;79.00
53748;DHT22;39655;53.210;5.768;2023-03-04T00:08:02;6.20;79.10
53748;DHT22;39655;53.210;5.768;2023-03-04T00:10:28;6.20;79.30
53748;DHT22;39655;53.210;5.768;2023-03-04T00:12:54;6.20;79.50
53748;DHT22;39655;53.210;5.768;2023-03-04T00:15:19;6.20;79.80
53748;DHT22;39655;53.210;5.768;2023-03-04T00:17:45;6.20;80.20
53748;DHT22;39655;53.210;5.768;2023-03-04T00:20:11;6.20;80.30
53748;DHT22;39655;53.210;5.768;2023-03-04T00:22:37;6.20;80.50
53748;DHT22;39655;53.210;5.768;2023-03-04T00:25:03;6.20;80.20
53748;DHT22;39655;53.210;5.768;2023-03-04T00:27:29;6.20;80.30
53748;DHT22;39655;53.210;5.768;2023-03-04T00:29:55;6.20;80.30
53748;DHT22;39655;53.210;5.768;2023-03-04T00:32:21;6.20;80.60
53748;DHT22;39655;53.210;5.768;2023-03-04T00:34:47;6.20;80.90
53748;DHT22;39655;53.210;5.768;2023-03-04T00:37:13;6.20;81.00
53748;DHT22;39655;53.210;5.768;2023-03-04T00:39:39;6.20;81.00
53748;DHT22;39655;53.210;5.768;2023-03-04T00:42:05;6.20;81.00
53748;DHT22;39655;53.210;5.768;2023-03-04T00:44:31;6.20;80.40
53748;DHT22;39655;53.210;5.768;2023-03-04T00:46:56;6.10;80.00
53748;DHT22;39655;53.210;5.768;2023-03-04T00:49:22;6.10;79.30
53748;DHT22;39655;53.210;5.768;2023-03-04T00:51:48;6.10;79.30
53748;DHT22;39655;53.210;5.768;2023-03-04T00:54:13;6.10;79.30
53748;DHT22;39655;53.210;5.768;2023-03-04T00:56:39;6.10;79.30
53748;DHT22;39655;53.210;5.768;2023-03-04T00:59:05;6.10;79.10
53748;DHT22;39655;53.210;5.768;2023-03-04T01:01:30;6.10;79.30
53748;DHT22;39655;53.210;5.768;2023-03-04T01:03:56;6.10;79.20
53748;DHT22;39655;53.210;5.768;2023-03-04T01:06:22;6.10;79.20
53748;DHT22;39655;53.210;5.768;2023-03-04T01:08:47;6.10;79.40
53748;DHT22;39655;53.210;5.768;2023-03-04T01:11:13;6.10;79.60
53748;DHT22;39655;53.210;5.768;2023-03-04T01:13:39;6.20;79.90
53748;DHT22;39655;53.210;5.768;2023-03-04T01:16:05;6.10;80.20
53748;DHT22;39655;53.210;5.768;2023-03-04T01:18:32;6.10;80.50
53748;DHT22;39655;53.210;5.768;2023-03-04T01:20:58;6.10;80.70
53748;DHT22;39655;53.210;5.768;2023-03-04T01:23:23;6.10;80.80
53748;DHT22;39655;53.210;5.768;2023-03-04T01:25:49;6.10;80.40
53748;DHT22;39655;53.210;5.768;2023-03-04T01:28:14;6.20;80.10
53748;DHT22;39655;53.210;5.768;2023-03-04T01:30:40;6.10;79.40
53748;DHT22;39655;53.210;5.768;2023-03-04T01:33:06;6.20;78.30
53748;DHT22;39655;53.210;5.768;2023-03-04T01:35:32;6.10;78.30
53748;DHT22;39655;53.210;5.768;2023-03-04T01:37:57;6.10;78.10
53748;DHT22;39655;53.210;5.768;2023-03-04T01:40:23;6.10;77.80
53748;DHT22;39655;53.210;5.768;2023-03-04T01:42:49;6.10;78.00
53748;DHT22;39655;53.210;5.768;2023-03-04T01:45:17;6.10;78.30
53748;DHT22;39655;53.210;5.768;2023-03-04T01:47:46;6.10;78.40
53748;DHT22;39655;53.210;5.768;2023-03-04T01:50:32;6.10;78.60
53748;DHT22;39655;53.210;5.768;2023-03-04T01:53:00;6.20;78.90
53748;DHT22;39655;53.210;5.768;2023-03-04T01:55:26;6.10;79.20
53748;DHT22;39655;53.210;5.768;2023-03-04T01:57:52;6.10;79.50
53748;DHT22;39655;53.210;5.768;2023-03-04T02:00:26;6.10;79.90
53748;DHT22;39655;53.210;5.768;2023-03-04T02:02:56;6.10;80.20
53748;DHT22;39655;53.210;5.768;2023-03-04T02:05:22;6.10;80.70
53748;DHT22;39655;53.210;5.768;2023-03-04T02:07:50;6.10;80.60
53748;DHT22;39655;53.210;5.768;2023-03-04T02:10:16;6.10;81.00
53748;DHT22;39655;53.210;5.768;2023-03-04T02:12:43;6.00;81.40
53748;DHT22;39655;53.210;5.768;2023-03-04T02:15:11;6.00;81.80
53748;DHT22;39655;53.210;5.768;2023-03-04T02:17:37;6.00;81.80
53748;DHT22;39655;53.210;5.768;2023-03-04T02:25:46;6.10;82.20
53748;DHT22;39655;53.210;5.768;2023-03-04T02:28:13;6.10;81.70
53748;DHT22;39655;53.210;5.768;2023-03-04T02:30:39;6.00;81.30
53748;DHT22;39655;53.210;5.768;2023-03-04T02:33:08;6.00;81.10
53748;DHT22;39655;53.210;5.768;2023-03-04T02:35:35;6.10;80.90
53748;DHT22;39655;53.210;5.768;2023-03-04T02:38:00;6.10;80.90
53748;DHT22;39655;53.210;5.768;2023-03-04T02:40:29;6.00;80.90
53748;DHT22;39655;53.210;5.768;2023-03-04T02:42:58;6.10;80.80
53748;DHT22;39655;53.210;5.768;2023-03-04T02:45:44;6.00;80.70
53748;DHT22;39655;53.210;5.768;2023-03-04T02:48:11;6.10;80.60
53748;DHT22;39655;53.210;5.768;2023-03-04T02:50:44;6.10;80.70
53748;DHT22;39655;53.210;5.768;2023-03-04T02:53:10;6.10;80.80
53748;DHT22;39655;53.210;5.768;2023-03-04T02:55:36;6.10;81.30
53748;DHT22;39655;53.210;5.768;2023-03-04T02:58:02;6.10;81.60
53748;DHT22;39655;53.210;5.768;2023-03-04T03:00:28;6.10;81.80
53748;DHT22;39655;53.210;5.768;2023-03-04T03:02:54;6.10;82.10
53748;DHT22;39655;53.210;5.768;2023-03-04T03:05:25;6.20;82.40
53748;DHT22;39655;53.210;5.768;2023-03-04T03:07:51;6.20;82.60
53748;DHT22;39655;53.210;5.768;2023-03-04T03:10:17;6.20;82.70
53748;DHT22;39655;53.210;5.768;2023-03-04T03:12:44;6.20;82.80
53748;DHT22;39655;53.210;5.768;2023-03-04T03:15:10;6.20;83.00
53748;DHT22;39655;53.210;5.768;2023-03-04T03:17:36;6.20;83.10
53748;DHT22;39655;53.210;5.768;2023-03-04T03:20:02;6.20;83.30
53748;DHT22;39655;53.210;5.768;2023-03-04T03:22:27;6.20;83.90
53748;DHT22;39655;53.210;5.768;2023-03-04T03:24:53;6.10;84.10
53748;DHT22;39655;53.210;5.768;2023-03-04T03:27:19;6.20;84.40
53748;DHT22;39655;53.210;5.768;2023-03-04T03:29:45;6.20;84.60
53748;DHT22;39655;53.210;5.768;2023-03-04T03:32:11;6.10;84.60
53748;DHT22;39655;53.210;5.768;2023-03-04T03:34:36;6.10;84.50
53748;DHT22;39655;53.210;5.768;2023-03-04T03:37:02;6.20;84.50
53748;DHT22;39655;53.210;5.768;2023-03-04T03:39:28;6.10;84.50
53748;DHT22;39655;53.210;5.768;2023-03-04T03:41:54;6.10;84.40
53748;DHT22;39655;53.210;5.768;2023-03-04T03:44:19;6.20;84.40
53748;DHT22;39655;53.210;5.768;2023-03-04T03:46:45;6.10;84.30
53748;DHT22;39655;53.210;5.768;2023-03-04T03:49:11;6.10;84.30
53748;DHT22;39655;53.210;5.768;2023-03-04T03:51:37;6.20;84.30
53748;DHT22;39655;53.210;5.768;2023-03-04T03:54:03;6.10;84.20
53748;DHT22;39655;53.210;5.768;2023-03-04T03:56:29;6.10;84.20
53748;DHT22;39655;53.210;5.768;2023-03-04T03:58:55;6.20;84.20
53748;DHT22;39655;53.210;5.768;2023-03-04T04:01:20;6.20;84.30
53748;DHT22;39655;53.210;5.768;2023-03-04T04:03:46;6.20;84.40
53748;DHT22;39655;53.210;5.768;2023-03-04T04:06:12;6.20;84.30
53748;DHT22;39655;53.210;5.768;2023-03-04T04:08:37;6.20;84.40
53748;DHT22;39655;53.210;5.768;2023-03-04T04:11:04;6.20;84.50
53748;DHT22;39655;53.210;5.768;2023-03-04T04:13:32;6.20;84.40
53748;DHT22;39655;53.210;5.768;2023-03-04T04:15:57;6.20;84.40
53748;DHT22;39655;53.210;5.768;2023-03-04T04:18:24;6.20;84.40
53748;DHT22;39655;53.210;5.768;2023-03-04T04:20:51;6.20;84.30
53748;DHT22;39655;53.210;5.768;2023-03-04T04:23:18;6.20;84.50
53748;DHT22;39655;53.210;5.768;2023-03-04T04:25:43;6.20;84.60
53748;DHT22;39655;53.210;5.768;2023-03-04T04:28:09;6.20;84.80
53748;DHT22;39655;53.210;5.768;2023-03-04T04:30:35;6.20;84.90
53748;DHT22;39655;53.210;5.768;2023-03-04T04:33:01;6.10;85.20
53748;DHT22;39655;53.210;5.768;2023-03-04T04:35:32;6.10;85.30
53748;DHT22;39655;53.210;5.768;2023-03-04T04:37:59;6.10;85.40
53748;DHT22;39655;53.210;5.768;2023-03-04T04:40:25;6.10;85.50
53748;DHT22;39655;53.210;5.768;2023-03-04T04:42:51;6.10;85.60
53748;DHT22;39655;53.210;5.768;2023-03-04T04:45:17;6.10;85.60
53748;DHT22;39655;53.210;5.768;2023-03-04T04:47:45;6.10;85.60
53748;DHT22;39655;53.210;5.768;2023-03-04T04:50:11;6.20;85.70
53748;DHT22;39655;53.210;5.768;2023-03-04T04:52:37;6.20;86.20
53748;DHT22;39655;53.210;5.768;2023-03-04T04:55:03;6.20;87.60
53748;DHT22;39655;53.210;5.768;2023-03-04T04:57:28;6.10;88.40
53748;DHT22;39655;53.210;5.768;2023-03-04T04:59:54;6.00;88.70
53748;DHT22;39655;53.210;5.768;2023-03-04T05:02:20;5.90;89.20
53748;DHT22;39655;53.210;5.768;2023-03-04T05:04:45;5.80;89.60
53748;DHT22;39655;53.210;5.768;2023-03-04T05:07:11;5.70;89.80
53748;DHT22;39655;53.210;5.768;2023-03-04T05:09:37;5.70;90.10
53748;DHT22;39655;53.210;5.768;2023-03-04T05:12:03;5.70;90.20
53748;DHT22;39655;53.210;5.768;2023-03-04T05:14:29;5.70;90.30
53748;DHT22;39655;53.210;5.768;2023-03-04T05:16:55;5.70;90.60
53748;DHT22;39655;53.210;5.768;2023-03-04T05:19:21;5.80;90.80
53748;DHT22;39655;53.210;5.768;2023-03-04T05:21:46;5.80;91.10
53748;DHT22;39655;53.210;5.768;2023-03-04T05:24:12;5.70;91.20
53748;DHT22;39655;53.210;5.768;2023-03-04T05:26:41;5.80;91.30
53748;DHT22;39655;53.210;5.768;2023-03-04T05:29:07;5.80;91.40
53748;DHT22;39655;53.210;5.768;2023-03-04T05:31:32;5.80;91.50
53748;DHT22;39655;53.210;5.768;2023-03-04T05:34:01;5.80;91.70
53748;DHT22;39655;53.210;5.768;2023-03-04T05:36:26;5.90;91.70
53748;DHT22;39655;53.210;5.768;2023-03-04T05:38:52;5.90;91.70
53748;DHT22;39655;53.210;5.768;2023-03-04T05:41:18;5.90;91.80
53748;DHT22;39655;53.210;5.768;2023-03-04T05:43:49;5.90;91.80
53748;DHT22;39655;53.210;5.768;2023-03-04T05:46:17;5.90;91.90
53748;DHT22;39655;53.210;5.768;2023-03-04T05:48:43;5.90;91.80
53748;DHT22;39655;53.210;5.768;2023-03-04T05:51:09;5.90;91.80
53748;DHT22;39655;53.210;5.768;2023-03-04T05:53:35;5.90;91.80
53748;DHT22;39655;53.210;5.768;2023-03-04T05:56:16;6.00;91.90
53748;DHT22;39655;53.210;5.768;2023-03-04T05:58:43;5.90;91.90
53748;DHT22;39655;53.210;5.768;2023-03-04T06:01:09;5.90;91.90
53748;DHT22;39655;53.210;5.768;2023-03-04T06:03:37;5.90;91.90
53748;DHT22;39655;53.210;5.768;2023-03-04T06:06:07;5.90;91.90
53748;DHT22;39655;53.210;5.768;2023-03-04T06:08:33;5.90;91.90
53748;DHT22;39655;53.210;5.768;2023-03-04T06:10:59;6.00;92.10
53748;DHT22;39655;53.210;5.768;2023-03-04T06:13:25;5.90;92.10
53748;DHT22;39655;53.210;5.768;2023-03-04T06:15:55;6.00;92.30
53748;DHT22;39655;53.210;5.768;2023-03-04T06:18:22;5.90;92.40
53748;DHT22;39655;53.210;5.768;2023-03-04T06:20:49;5.90;92.70
53748;DHT22;39655;53.210;5.768;2023-03-04T06:23:15;5.80;92.80
53748;DHT22;39655;53.210;5.768;2023-03-04T06:25:41;5.80;93.00
53748;DHT22;39655;53.210;5.768;2023-03-04T06:28:07;5.80;93.30
53748;DHT22;39655;53.210;5.768;2023-03-04T06:30:33;5.80;93.50
53748;DHT22;39655;53.210;5.768;2023-03-04T06:32:58;5.80;93.70
53748;DHT22;39655;53.210;5.768;2023-03-04T06:35:27;5.80;94.00
53748;DHT22;39655;53.210;5.768;2023-03-04T06:37:53;5.80;94.00
53748;DHT22;39655;53.210;5.768;2023-03-04T06:40:18;5.70;93.90
53748;DHT22;39655;53.210;5.768;2023-03-04T06:42:44;5.70;94.00
53748;DHT22;39655;53.210;5.768;2023-03-04T06:45:10;5.70;94.00
53748;DHT22;39655;53.210;5.768;2023-03-04T06:47:36;5.70;94.00
53748;DHT22;39655;53.210;5.768;2023-03-04T06:50:03;5.70;94.10
53748;DHT22;39655;53.210;5.768;2023-03-04T06:52:29;5.70;94.20
53748;DHT22;39655;53.210;5.768;2023-03-04T06:54:55;5.70;94.20
53748;DHT22;39655;53.210;5.768;2023-03-04T06:57:21;5.80;94.30
53748;DHT22;39655;53.210;5.768;2023-03-04T06:59:46;5.70;94.30
53748;DHT22;39655;53.210;5.768;2023-03-04T07:02:12;5.80;94.30
53748;DHT22;39655;53.210;5.768;2023-03-04T07:04:39;5.80;94.30
53748;DHT22;39655;53.210;5.768;2023-03-04T07:07:05;5.90;94.30
53748;DHT22;39655;53.210;5.768;2023-03-04T07:09:33;5.90;94.40
53748;DHT22;39655;53.210;5.768;2023-03-04T07:11:59;5.90;94.40
53748;DHT22;39655;53.210;5.768;2023-03-04T07:14:25;6.00;94.40
53748;DHT22;39655;53.210;5.768;2023-03-04T07:16:52;6.10;94.60
53748;DHT22;39655;53.210;5.768;2023-03-04T07:19:17;6.10;94.60
53748;DHT22;39655;53.210;5.768;2023-03-04T07:21:43;6.10;94.60
53748;DHT22;39655;53.210;5.768;2023-03-04T07:24:09;6.10;94.70
53748;DHT22;39655;53.210;5.768;2023-03-04T07:26:35;6.10;94.80
53748;DHT22;39655;53.210;5.768;2023-03-04T07:29:02;6.10;94.90
53748;DHT22;39655;53.210;5.768;2023-03-04T07:31:30;6.10;95.10
53748;DHT22;39655;53.210;5.768;2023-03-04T07:34:01;6.10;95.10
53748;DHT22;39655;53.210;5.768;2023-03-04T07:36:30;6.10;95.30
53748;DHT22;39655;53.210;5.768;2023-03-04T07:38:56;6.10;95.30
53748;DHT22;39655;53.210;5.768;2023-03-04T07:41:24;6.10;95.40
53748;DHT22;39655;53.210;5.768;2023-03-04T07:43:50;6.00;95.20
53748;DHT22;39655;53.210;5.768;2023-03-04T07:46:16;5.90;95.10
53748;DHT22;39655;53.210;5.768;2023-03-04T07:48:42;5.90;95.10
53748;DHT22;39655;53.210;5.768;2023-03-04T07:51:11;5.90;95.20
53748;DHT22;39655;53.210;5.768;2023-03-04T07:53:38;5.90;95.10
53748;DHT22;39655;53.210;5.768;2023-03-04T07:56:06;6.00;95.00
53748;DHT22;39655;53.210;5.768;2023-03-04T07:58:32;6.00;95.00
53748;DHT22;39655;53.210;5.768;2023-03-04T08:00:57;6.00;94.90
53748;DHT22;39655;53.210;5.768;2023-03-04T08:03:23;6.10;94.90
53748;DHT22;39655;53.210;5.768;2023-03-04T08:05:50;6.10;94.70
53748;DHT22;39655;53.210;5.768;2023-03-04T08:08:16;6.20;94.60
53748;DHT22;39655;53.210;5.768;2023-03-04T08:10:42;6.30;94.60
53748;DHT22;39655;53.210;5.768;2023-03-04T08:13:08;6.30;94.10
53748;DHT22;39655;53.210;5.768;2023-03-04T08:15:39;6.30;93.10
53748;DHT22;39655;53.210;5.768;2023-03-04T08:18:05;6.40;92.10
53748;DHT22;39655;53.210;5.768;2023-03-04T08:20:30;6.40;90.70
53748;DHT22;39655;53.210;5.768;2023-03-04T08:22:56;6.50;90.40
53748;DHT22;39655;53.210;5.768;2023-03-04T08:25:21;6.60;89.50
53748;DHT22;39655;53.210;5.768;2023-03-04T08:27:47;6.60;89.10
53748;DHT22;39655;53.210;5.768;2023-03-04T08:30:13;6.70;88.70
53748;DHT22;39655;53.210;5.768;2023-03-04T08:32:38;6.70;88.00
53748;DHT22;39655;53.210;5.768;2023-03-04T08:35:05;6.70;87.80
53748;DHT22;39655;53.210;5.768;2023-03-04T08:37:30;6.70;88.00
53748;DHT22;39655;53.210;5.768;2023-03-04T08:39:56;6.80;88.30
53748;DHT22;39655;53.210;5.768;2023-03-04T08:42:22;6.80;88.40
53748;DHT22;39655;53.210;5.768;2023-03-04T08:44:49;6.80;88.40
53748;DHT22;39655;53.210;5.768;2023-03-04T08:47:14;6.80;88.10
53748;DHT22;39655;53.210;5.768;2023-03-04T08:49:40;6.90;88.20
53748;DHT22;39655;53.210;5.768;2023-03-04T08:52:05;7.00;88.10
53748;DHT22;39655;53.210;5.768;2023-03-04T08:54:31;6.90;87.80
53748;DHT22;39655;53.210;5.768;2023-03-04T08:56:57;6.90;87.60
53748;DHT22;39655;53.210;5.768;2023-03-04T08:59:23;6.90;87.20
53748;DHT22;39655;53.210;5.768;2023-03-04T09:01:49;6.80;87.40
53748;DHT22;39655;53.210;5.768;2023-03-04T09:04:14;6.70;87.70
53748;DHT22;39655;53.210;5.768;2023-03-04T09:06:40;6.70;88.00
53748;DHT22;39655;53.210;5.768;2023-03-04T09:09:06;6.80;88.10
53748;DHT22;39655;53.210;5.768;2023-03-04T09:11:31;6.70;88.10
53748;DHT22;39655;53.210;5.768;2023-03-04T09:13:57;6.80;88.20
53748;DHT22;39655;53.210;5.768;2023-03-04T09:16:23;6.90;87.70
53748;DHT22;39655;53.210;5.768;2023-03-04T09:18:49;6.90;87.10
53748;DHT22;39655;53.210;5.768;2023-03-04T09:21:14;6.90;87.40
53748;DHT22;39655;53.210;5.768;2023-03-04T09:23:40;6.90;87.30
53748;DHT22;39655;53.210;5.768;2023-03-04T09:26:20;6.90;86.80
53748;DHT22;39655;53.210;5.768;2023-03-04T09:28:52;6.90;86.70
53748;DHT22;39655;53.210;5.768;2023-03-04T09:31:18;6.90;86.80
53748;DHT22;39655;53.210;5.768;2023-03-04T09:33:44;6.90;86.40
53748;DHT22;39655;53.210;5.768;2023-03-04T09:36:11;7.00;86.00
53748;DHT22;39655;53.210;5.768;2023-03-04T09:38:37;7.00;85.10
53748;DHT22;39655;53.210;5.768;2023-03-04T09:41:07;7.00;83.20
53748;DHT22;39655;53.210;5.768;2023-03-04T09:43:34;7.10;82.50
53748;DHT22;39655;53.210;5.768;2023-03-04T09:46:06;7.10;80.80
53748;DHT22;39655;53.210;5.768;2023-03-04T09:48:42;7.10;80.10
53748;DHT22;39655;53.210;5.768;2023-03-04T09:51:34;7.10;80.30
53748;DHT22;39655;53.210;5.768;2023-03-04T09:56:54;7.20;79.40
53748;DHT22;39655;53.210;5.768;2023-03-04T10:02:23;7.20;78.60
53748;DHT22;39655;53.210;5.768;2023-03-04T10:04:58;7.20;78.20
53748;DHT22;39655;53.210;5.768;2023-03-04T10:07:30;7.20;79.00
53748;DHT22;39655;53.210;5.768;2023-03-04T10:10:15;7.20;80.30
53748;DHT22;39655;53.210;5.768;2023-03-04T10:12:46;7.20;81.40
53748;DHT22;39655;53.210;5.768;2023-03-04T10:15:31;7.20;82.20
53748;DHT22;39655;53.210;5.768;2023-03-04T10:18:15;7.30;82.30
53748;DHT22;39655;53.210;5.768;2023-03-04T10:21:21;7.30;80.70
53748;DHT22;39655;53.210;5.768;2023-03-04T10:23:50;7.30;80.10
53748;DHT22;39655;53.210;5.768;2023-03-04T10:26:28;7.30;80.30
53748;DHT22;39655;53.210;5.768;2023-03-04T10:28:55;7.40;80.60
53748;DHT22;39655;53.210;5.768;2023-03-04T10:31:39;7.70;80.70
53748;DHT22;39655;53.210;5.768;2023-03-04T10:34:08;8.00;80.00
53748;DHT22;39655;53.210;5.768;2023-03-04T10:36:52;8.10;79.00
53748;DHT22;39655;53.210;5.768;2023-03-04T10:39:30;8.00;78.90
53748;DHT22;39655;53.210;5.768;2023-03-04T10:42:04;7.90;79.30
53748;DHT22;39655;53.210;5.768;2023-03-04T10:44:33;7.80;78.60
53748;DHT22;39655;53.210;5.768;2023-03-04T10:46:59;7.70;77.20
53748;DHT22;39655;53.210;5.768;2023-03-04T10:49:26;7.70;76.80
53748;DHT22;39655;53.210;5.768;2023-03-04T10:57:01;8.00;77.00
53748;DHT22;39655;53.210;5.768;2023-03-04T11:04:53;8.20;74.90
53748;DHT22;39655;53.210;5.768;2023-03-04T11:07:28;8.20;73.80
53748;DHT22;39655;53.210;5.768;2023-03-04T11:09:54;8.10;74.00
53748;DHT22;39655;53.210;5.768;2023-03-04T11:12:31;7.90;74.90
53748;DHT22;39655;53.210;5.768;2023-03-04T11:14:58;7.80;75.10
53748;DHT22;39655;53.210;5.768;2023-03-04T11:17:30;7.80;75.50
53748;DHT22;39655;53.210;5.768;2023-03-04T11:20:22;7.80;75.70
53748;DHT22;39655;53.210;5.768;2023-03-04T11:22:49;7.90;75.40
53748;DHT22;39655;53.210;5.768;2023-03-04T11:25:27;7.90;74.90
53748;DHT22;39655;53.210;5.768;2023-03-04T11:28:09;7.90;75.50
53748;DHT22;39655;53.210;5.768;2023-03-04T11:30:52;7.90;75.60
53748;DHT22;39655;53.210;5.768;2023-03-04T11:33:28;8.10;76.00
53748;DHT22;39655;53.210;5.768;2023-03-04T11:38:44;8.10;73.50
53748;DHT22;39655;53.210;5.768;2023-03-04T11:41:15;8.10;74.20
53748;DHT22;39655;53.210;5.768;2023-03-04T11:43:45;8.20;74.20
53748;DHT22;39655;53.210;5.768;2023-03-04T11:54:58;8.50;73.10
53748;DHT22;39655;53.210;5.768;2023-03-04T11:59:56;8.20;72.90
53748;DHT22;39655;53.210;5.768;2023-03-04T12:05:25;8.10;71.70
53748;DHT22;39655;53.210;5.768;2023-03-04T12:08:16;8.20;71.80
53748;DHT22;39655;53.210;5.768;2023-03-04T12:11:27;8.20;70.80
53748;DHT22;39655;53.210;5.768;2023-03-04T12:14:43;8.20;71.60
53748;DHT22;39655;53.210;5.768;2023-03-04T12:22:59;8.30;70.00
53748;DHT22;39655;53.210;5.768;2023-03-04T12:25:48;8.20;69.00
53748;DHT22;39655;53.210;5.768;2023-03-04T12:31:33;8.20;69.00
53748;DHT22;39655;53.210;5.768;2023-03-04T12:34:55;8.20;68.30
53748;DHT22;39655;53.210;5.768;2023-03-04T12:40:46;8.20;67.60
53748;DHT22;39655;53.210;5.768;2023-03-04T12:46:20;8.40;66.50
53748;DHT22;39655;53.210;5.768;2023-03-04T12:49:14;8.40;66.30
53748;DHT22;39655;53.210;5.768;2023-03-04T12:54:49;8.30;70.20
53748;DHT22;39655;53.210;5.768;2023-03-04T12:57:25;8.20;70.60
53748;DHT22;39655;53.210;5.768;2023-03-04T13:00:08;8.30;69.80
53748;DHT22;39655;53.210;5.768;2023-03-04T13:11:01;8.70;66.90
53748;DHT22;39655;53.210;5.768;2023-03-04T13:13:40;8.70;66.70
53748;DHT22;39655;53.210;5.768;2023-03-04T13:18:36;8.50;68.80
53748;DHT22;39655;53.210;5.768;2023-03-04T13:21:24;8.60;68.60
53748;DHT22;39655;53.210;5.768;2023-03-04T13:23:51;8.50;69.30
53748;DHT22;39655;53.210;5.768;2023-03-04T13:26:27;8.40;70.70
53748;DHT22;39655;53.210;5.768;2023-03-04T13:31:58;8.30;73.30
53748;DHT22;39655;53.210;5.768;2023-03-04T13:34:52;8.20;74.80
53748;DHT22;39655;53.210;5.768;2023-03-04T13:37:32;8.00;75.00
53748;DHT22;39655;53.210;5.768;2023-03-04T13:42:48;7.70;76.80
53748;DHT22;39655;53.210;5.768;2023-03-04T13:45:33;7.70;77.30
53748;DHT22;39655;53.210;5.768;2023-03-04T13:47:59;7.70;77.70
53748;DHT22;39655;53.210;5.768;2023-03-04T13:50:32;7.70;77.30
53748;DHT22;39655;53.210;5.768;2023-03-04T13:53:18;7.70;76.00
53748;DHT22;39655;53.210;5.768;2023-03-04T13:56:18;7.70;76.00
53748;DHT22;39655;53.210;5.768;2023-03-04T13:58:45;7.90;75.00
53748;DHT22;39655;53.210;5.768;2023-03-04T14:01:25;7.90;75.00
53748;DHT22;39655;53.210;5.768;2023-03-04T14:03:51;8.00;73.90
53748;DHT22;39655;53.210;5.768;2023-03-04T14:06:21;8.10;73.40
53748;DHT22;39655;53.210;5.768;2023-03-04T14:08:48;8.10;73.30
53748;DHT22;39655;53.210;5.768;2023-03-04T14:11:28;8.20;73.80
53748;DHT22;39655;53.210;5.768;2023-03-04T14:13:59;8.20;74.30
53748;DHT22;39655;53.210;5.768;2023-03-04T14:16:27;8.10;74.10
53748;DHT22;39655;53.210;5.768;2023-03-04T14:19:11;8.10;73.30
53748;DHT22;39655;53.210;5.768;2023-03-04T14:21:44;8.00;71.90
53748;DHT22;39655;53.210;5.768;2023-03-04T14:24:18;7.90;71.80
53748;DHT22;39655;53.210;5.768;2023-03-04T14:26:44;7.80;72.60
53748;DHT22;39655;53.210;5.768;2023-03-04T14:29:24;7.90;72.70
53748;DHT22;39655;53.210;5.768;2023-03-04T14:31:50;7.90;72.30
53748;DHT22;39655;53.210;5.768;2023-03-04T14:34:35;7.90;73.50
53748;DHT22;39655;53.210;5.768;2023-03-04T14:37:03;7.90;73.80
53748;DHT22;39655;53.210;5.768;2023-03-04T14:39:41;7.90;73.70
53748;DHT22;39655;53.210;5.768;2023-03-04T14:42:10;7.80;74.30
53748;DHT22;39655;53.210;5.768;2023-03-04T14:44:43;7.90;75.00
53748;DHT22;39655;53.210;5.768;2023-03-04T14:49:39;8.20;74.10
53748;DHT22;39655;53.210;5.768;2023-03-04T14:52:05;8.40;73.80
53748;DHT22;39655;53.210;5.768;2023-03-04T14:54:38;8.60;73.00
53748;DHT22;39655;53.210;5.768;2023-03-04T14:57:23;8.80;72.00
53748;DHT22;39655;53.210;5.768;2023-03-04T14:59:52;9.00;71.70
53748;DHT22;39655;53.210;5.768;2023-03-04T15:02:27;9.10;71.10
53748;DHT22;39655;53.210;5.768;2023-03-04T15:07:52;8.40;72.70
53748;DHT22;39655;53.210;5.768;2023-03-04T15:10:22;7.90;75.20
53748;DHT22;39655;53.210;5.768;2023-03-04T15:12:57;7.60;76.40
53748;DHT22;39655;53.210;5.768;2023-03-04T15:15:36;7.20;78.20
53748;DHT22;39655;53.210;5.768;2023-03-04T15:18:17;6.90;79.50
53748;DHT22;39655;53.210;5.768;2023-03-04T15:23:23;6.70;80.60
53748;DHT22;39655;53.210;5.768;2023-03-04T15:26:00;6.60;81.40
53748;DHT22;39655;53.210;5.768;2023-03-04T15:28:36;6.60;81.80
53748;DHT22;39655;53.210;5.768;2023-03-04T15:31:03;6.60;81.30
53748;DHT22;39655;53.210;5.768;2023-03-04T15:33:29;6.60;82.00
53748;DHT22;39655;53.210;5.768;2023-03-04T15:35:59;6.60;82.30
53748;DHT22;39655;53.210;5.768;2023-03-04T15:38:27;6.70;82.10
53748;DHT22;39655;53.210;5.768;2023-03-04T15:40:54;6.90;82.10
53748;DHT22;39655;53.210;5.768;2023-03-04T15:43:21;7.10;81.30
53748;DHT22;39655;53.210;5.768;2023-03-04T15:45:48;7.40;78.30
53748;DHT22;39655;53.210;5.768;2023-03-04T15:48:15;7.50;77.10
53748;DHT22;39655;53.210;5.768;2023-03-04T15:50:54;7.50;75.70
53748;DHT22;39655;53.210;5.768;2023-03-04T15:53:34;7.40;75.00
53748;DHT22;39655;53.210;5.768;2023-03-04T15:56:02;7.40;75.60
53748;DHT22;39655;53.210;5.768;2023-03-04T15:58:28;7.40;75.70
53748;DHT22;39655;53.210;5.768;2023-03-04T16:00:54;7.20;76.20
53748;DHT22;39655;53.210;5.768;2023-03-04T16:03:20;7.10;76.60
53748;DHT22;39655;53.210;5.768;2023-03-04T16:05:49;7.00;77.50
53748;DHT22;39655;53.210;5.768;2023-03-04T16:08:20;6.90;78.10
53748;DHT22;39655;53.210;5.768;2023-03-04T16:10:49;6.90;78.40
53748;DHT22;39655;53.210;5.768;2023-03-04T16:13:20;7.00;78.70
53748;DHT22;39655;53.210;5.768;2023-03-04T16:15:47;7.20;78.70
53748;DHT22;39655;53.210;5.768;2023-03-04T16:18:14;7.20;77.70
53748;DHT22;39655;53.210;5.768;2023-03-04T16:20:42;7.10;77.80
53748;DHT22;39655;53.210;5.768;2023-03-04T16:23:17;7.10;77.80
53748;DHT22;39655;53.210;5.768;2023-03-04T16:25:45;7.00;77.00
53748;DHT22;39655;53.210;5.768;2023-03-04T16:28:11;6.90;77.40
53748;DHT22;39655;53.210;5.768;2023-03-04T16:30:37;6.80;77.50
53748;DHT22;39655;53.210;5.768;2023-03-04T16:33:03;6.80;77.30
53748;DHT22;39655;53.210;5.768;2023-03-04T16:35:31;6.70;77.90
53748;DHT22;39655;53.210;5.768;2023-03-04T16:37:58;6.60;78.30
53748;DHT22;39655;53.210;5.768;2023-03-04T16:40:27;6.60;78.70
53748;DHT22;39655;53.210;5.768;2023-03-04T16:42:53;6.50;79.10
53748;DHT22;39655;53.210;5.768;2023-03-04T16:45:23;6.40;79.60
53748;DHT22;39655;53.210;5.768;2023-03-04T16:47:50;6.40;79.80
53748;DHT22;39655;53.210;5.768;2023-03-04T16:50:19;6.30;80.70
53748;DHT22;39655;53.210;5.768;2023-03-04T16:52:48;6.20;81.80
53748;DHT22;39655;53.210;5.768;2023-03-04T16:55:26;6.00;82.30
53748;DHT22;39655;53.210;5.768;2023-03-04T16:57:54;5.90;82.90
53748;DHT22;39655;53.210;5.768;2023-03-04T17:00:21;5.80;83.40
53748;DHT22;39655;53.210;5.768;2023-03-04T17:02:55;5.70;83.80
53748;DHT22;39655;53.210;5.768;2023-03-04T17:05:23;5.60;84.10
53748;DHT22;39655;53.210;5.768;2023-03-04T17:07:49;5.60;84.40
53748;DHT22;39655;53.210;5.768;2023-03-04T17:10:15;5.70;84.90
53748;DHT22;39655;53.210;5.768;2023-03-04T17:12:41;5.60;85.00
53748;DHT22;39655;53.210;5.768;2023-03-04T17:15:11;5.60;85.30
53748;DHT22;39655;53.210;5.768;2023-03-04T17:17:37;5.60;85.20
53748;DHT22;39655;53.210;5.768;2023-03-04T17:20:03;5.50;85.50